createdAt,value
2016-12-28T00:00:51.700Z,13.97
2016-12-28T00:02:02.613Z,13.91
2016-12-28T00:03:13.523Z,13.95
2016-12-28T00:04:24.504Z,13.96
2016-12-28T00:05:35.073Z,13.87
2016-12-28T00:06:45.642Z,13.95
2016-12-28T00:07:56.195Z,13.96
2016-12-28T00:09:07.104Z,13.95
2016-12-28T00:10:18.065Z,13.97
2016-12-28T00:11:28.967Z,13.91
2016-12-28T00:12:39.876Z,13.92
2016-12-28T00:13:50.437Z,13.92
2016-12-28T00:15:01.347Z,13.89
2016-12-28T00:16:12.308Z,13.88
2016-12-28T00:17:22.881Z,13.92
2016-12-28T00:18:33.790Z,13.89
2016-12-28T00:19:44.695Z,13.96
2016-12-28T00:20:55.605Z,13.95
2016-12-28T00:22:06.220Z,13.92
2016-12-28T00:23:16.431Z,13.95
2016-12-28T00:24:27.007Z,13.89
2016-12-28T00:25:37.911Z,13.88
2016-12-28T00:26:48.854Z,13.88
2016-12-28T00:27:59.467Z,13.96
2016-12-28T00:29:10.401Z,13.92
2016-12-28T00:30:20.958Z,13.85
2016-12-28T00:31:31.555Z,13.89
2016-12-28T00:32:42.116Z,13.92
2016-12-28T00:33:52.722Z,13.97
2016-12-28T00:35:03.626Z,14
2016-12-28T00:36:14.532Z,13.85
2016-12-28T00:37:25.093Z,13.91
2016-12-28T00:38:36.006Z,13.87
2016-12-28T00:39:46.620Z,13.95
2016-12-28T00:40:57.525Z,13.95
2016-12-28T00:42:08.090Z,13.96
2016-12-28T00:43:18.683Z,13.87
2016-12-28T00:44:29.249Z,13.92
2016-12-28T00:45:40.226Z,13.96
2016-12-28T00:46:51.131Z,13.91
2016-12-28T00:48:02.040Z,13.92
2016-12-28T00:49:12.941Z,13.87
2016-12-28T00:50:23.514Z,13.89
2016-12-28T00:51:34.472Z,13.92
2016-12-28T00:52:45.048Z,13.96
2016-12-28T00:53:55.953Z,13.92
2016-12-28T00:55:06.515Z,13.88
2016-12-28T00:56:17.429Z,13.92
2016-12-28T00:57:28.429Z,13.89
2016-12-28T00:58:38.982Z,13.91
2016-12-28T00:59:49.880Z,13.97
2016-12-28T01:01:00.789Z,13.85
2016-12-28T01:02:11.351Z,13.89
2016-12-28T01:03:22.311Z,13.89
2016-12-28T01:04:33.213Z,13.95
2016-12-28T01:05:44.123Z,13.85
2016-12-28T01:06:54.339Z,13.95
2016-12-28T01:08:05.268Z,13.95
2016-12-28T01:09:15.878Z,13.92
2016-12-28T01:10:26.774Z,13.91
2016-12-28T01:11:37.688Z,13.85
2016-12-28T01:12:48.257Z,13.89
2016-12-28T01:13:59.162Z,13.87
2016-12-28T01:15:10.123Z,13.91
2016-12-28T01:16:20.685Z,13.92
2016-12-28T01:17:31.601Z,13.82
2016-12-28T01:18:42.503Z,13.88
2016-12-28T01:19:53.068Z,13.87
2016-12-28T01:21:04.037Z,13.99
2016-12-28T01:22:14.622Z,13.85
2016-12-28T01:23:25.531Z,13.89
2016-12-28T01:24:36.441Z,13.85
2016-12-28T01:25:47.010Z,13.85
2016-12-28T01:26:57.967Z,13.89
2016-12-28T01:28:08.892Z,13.87
2016-12-28T01:29:19.105Z,13.82
2016-12-28T01:30:29.670Z,13.88
2016-12-28T01:31:40.236Z,13.85
2016-12-28T01:32:50.949Z,13.85
2016-12-28T01:34:01.858Z,13.88
2016-12-28T01:35:12.432Z,13.89
2016-12-28T01:36:22.997Z,14
2016-12-28T01:37:33.906Z,13.91
2016-12-28T01:38:44.899Z,13.82
2016-12-28T01:39:55.796Z,13.89
2016-12-28T01:41:06.354Z,13.88
2016-12-28T01:42:16.938Z,13.92
2016-12-28T01:43:27.839Z,13.97
2016-12-28T01:44:38.465Z,13.89
2016-12-28T01:45:49.366Z,13.91
2016-12-28T01:47:00.291Z,13.87
2016-12-28T01:48:10.892Z,13.89
2016-12-28T01:49:21.137Z,13.89
2016-12-28T01:50:31.755Z,13.92
2016-12-28T01:51:42.315Z,13.92
2016-12-28T01:52:53.225Z,13.91
2016-12-28T01:54:04.143Z,13.95
2016-12-28T01:55:15.055Z,13.84
2016-12-28T01:56:26.009Z,13.85
2016-12-28T01:57:36.925Z,13.87
2016-12-28T01:58:47.834Z,13.92
2016-12-28T01:59:58.396Z,13.87
2016-12-28T02:01:09.313Z,13.91
2016-12-28T02:02:20.266Z,13.91
2016-12-28T02:03:30.823Z,13.87
2016-12-28T02:04:41.732Z,13.92
2016-12-28T02:05:52.649Z,13.84
2016-12-28T02:07:03.234Z,13.89
2016-12-28T02:08:14.188Z,13.92
2016-12-28T02:09:24.409Z,13.92
2016-12-28T02:10:35.319Z,13.95
2016-12-28T02:11:45.895Z,13.87
2016-12-28T02:12:56.804Z,13.92
2016-12-28T02:14:07.765Z,13.89
2016-12-28T02:15:18.338Z,13.91
2016-12-28T02:16:28.563Z,13.88
2016-12-28T02:17:39.464Z,13.89
2016-12-28T02:18:50.033Z,13.91
2016-12-28T02:20:00.995Z,13.89
2016-12-28T02:21:11.907Z,13.88
2016-12-28T02:22:22.849Z,13.87
2016-12-28T02:23:33.762Z,13.95
2016-12-28T02:24:44.311Z,13.91
2016-12-28T02:25:55.127Z,13.92
2016-12-28T02:27:06.037Z,13.89
2016-12-28T02:28:16.606Z,13.87
2016-12-28T02:29:27.507Z,13.85
2016-12-28T02:30:38.068Z,13.89
2016-12-28T02:31:48.681Z,13.85
2016-12-28T02:32:59.242Z,13.85
2016-12-28T02:34:09.791Z,13.92
2016-12-28T02:35:20.700Z,13.85
2016-12-28T02:36:31.613Z,13.97
2016-12-28T02:37:42.586Z,13.96
2016-12-28T02:38:53.142Z,13.85
2016-12-28T02:40:04.048Z,13.89
2016-12-28T02:41:14.980Z,13.89
2016-12-28T02:42:25.886Z,13.89
2016-12-28T02:43:36.851Z,13.91
2016-12-28T02:44:47.751Z,13.78
2016-12-28T02:45:58.663Z,13.88
2016-12-28T02:47:09.222Z,13.81
2016-12-28T02:48:20.134Z,13.91
2016-12-28T02:49:30.847Z,13.89
2016-12-28T02:50:41.752Z,13.88
2016-12-28T02:51:52.317Z,13.89
2016-12-28T02:53:02.886Z,13.89
2016-12-28T02:54:13.448Z,13.87
2016-12-28T02:55:24.056Z,13.91
2016-12-28T02:56:34.957Z,13.79
2016-12-28T02:57:45.870Z,13.82
2016-12-28T02:58:56.779Z,13.88
2016-12-28T03:00:07.684Z,13.92
2016-12-28T03:01:18.653Z,13.85
2016-12-28T03:02:29.570Z,13.87
2016-12-28T03:03:40.483Z,13.89
2016-12-28T03:04:51.040Z,13.82
2016-12-28T03:06:01.949Z,13.87
2016-12-28T03:07:12.914Z,13.84
2016-12-28T03:08:23.483Z,13.87
2016-12-28T03:09:34.416Z,13.88
2016-12-28T03:10:45.325Z,13.91
2016-12-28T03:11:55.886Z,13.85
2016-12-28T03:13:06.499Z,13.79
2016-12-28T03:14:17.060Z,13.88
2016-12-28T03:15:27.621Z,13.87
2016-12-28T03:16:38.518Z,13.79
2016-12-28T03:17:48.743Z,13.91
2016-12-28T03:18:59.392Z,13.89
2016-12-28T03:20:09.942Z,13.81
2016-12-28T03:21:20.853Z,13.85
2016-12-28T03:22:31.419Z,13.88
2016-12-28T03:23:42.332Z,13.89
2016-12-28T03:24:52.941Z,13.87
2016-12-28T03:26:03.846Z,13.82
2016-12-28T03:27:14.751Z,13.89
2016-12-28T03:28:25.660Z,13.91
2016-12-28T03:29:36.221Z,13.92
2016-12-28T03:30:46.921Z,13.87
2016-12-28T03:31:57.827Z,13.82
2016-12-28T03:33:08.397Z,13.82
2016-12-28T03:34:19.305Z,13.79
2016-12-28T03:35:30.202Z,13.85
2016-12-28T03:36:40.819Z,13.85
2016-12-28T03:37:51.388Z,13.82
2016-12-28T03:39:01.962Z,13.78
2016-12-28T03:40:12.891Z,13.78
2016-12-28T03:41:23.455Z,13.82
2016-12-28T03:42:34.069Z,13.81
2016-12-28T03:43:44.974Z,13.82
2016-12-28T03:44:55.556Z,13.82
2016-12-28T03:46:06.120Z,13.91
2016-12-28T03:47:17.035Z,13.77
2016-12-28T03:48:27.991Z,13.82
2016-12-28T03:49:38.552Z,13.75
2016-12-28T03:50:49.453Z,13.89
2016-12-28T03:52:00.014Z,13.75
2016-12-28T03:53:10.928Z,13.84
2016-12-28T03:54:21.537Z,13.85
2016-12-28T03:55:32.106Z,13.75
2016-12-28T03:56:42.667Z,13.85
2016-12-28T03:57:53.576Z,13.79
2016-12-28T03:59:03.797Z,13.79
2016-12-28T04:00:14.410Z,13.87
2016-12-28T04:01:25.312Z,13.79
2016-12-28T04:02:35.865Z,13.75
2016-12-28T04:03:46.782Z,13.91
2016-12-28T04:04:57.691Z,13.79
2016-12-28T04:06:08.308Z,13.85
2016-12-28T04:07:19.205Z,13.85
2016-12-28T04:08:30.118Z,13.77
2016-12-28T04:09:40.672Z,13.88
2016-12-28T04:10:51.577Z,13.78
2016-12-28T04:12:01.850Z,13.82
2016-12-28T04:13:12.759Z,13.85
2016-12-28T04:14:23.332Z,13.85
2016-12-28T04:15:33.901Z,13.82
2016-12-28T04:16:44.819Z,13.82
2016-12-28T04:17:55.428Z,13.88
2016-12-28T04:19:06.337Z,13.79
2016-12-28T04:20:16.921Z,13.79
2016-12-28T04:21:27.131Z,13.77
2016-12-28T04:22:37.696Z,13.75
2016-12-28T04:23:48.822Z,13.79
2016-12-28T04:24:59.383Z,13.85
2016-12-28T04:26:10.295Z,13.87
2016-12-28T04:27:21.205Z,13.82
2016-12-28T04:28:32.118Z,13.82
2016-12-28T04:29:43.079Z,13.81
2016-12-28T04:30:53.641Z,13.75
2016-12-28T04:32:04.210Z,13.87
2016-12-28T04:33:14.803Z,13.81
2016-12-28T04:34:25.376Z,13.84
2016-12-28T04:35:36.325Z,13.84
2016-12-28T04:36:47.235Z,13.75
2016-12-28T04:37:58.147Z,13.79
2016-12-28T04:39:08.714Z,13.81
2016-12-28T04:40:19.658Z,13.85
2016-12-28T04:41:30.611Z,13.79
2016-12-28T04:42:41.177Z,13.73
2016-12-28T04:43:51.749Z,13.79
2016-12-28T04:45:02.667Z,13.73
2016-12-28T04:46:13.584Z,13.75
2016-12-28T04:47:24.541Z,13.79
2016-12-28T04:48:35.438Z,13.75
2016-12-28T04:49:46.376Z,13.7
2016-12-28T04:50:57.281Z,13.75
2016-12-28T04:52:08.181Z,13.78
2016-12-28T04:53:19.143Z,13.71
2016-12-28T04:54:30.052Z,13.75
2016-12-28T04:55:40.622Z,13.81
2016-12-28T04:56:51.183Z,13.82
2016-12-28T04:58:01.432Z,13.71
2016-12-28T04:59:12.397Z,13.75
2016-12-28T05:00:22.610Z,13.82
2016-12-28T05:01:33.523Z,13.73
2016-12-28T05:02:44.420Z,13.69
2016-12-28T05:03:55.325Z,13.85
2016-12-28T05:05:06.287Z,13.69
2016-12-28T05:06:16.500Z,13.7
2016-12-28T05:07:27.061Z,13.78
2016-12-28T05:08:37.623Z,13.78
2016-12-28T05:09:48.540Z,13.75
2016-12-28T05:10:59.497Z,13.77
2016-12-28T05:12:10.410Z,13.75
2016-12-28T05:13:20.968Z,13.78
2016-12-28T05:14:31.549Z,13.79
2016-12-28T05:15:42.447Z,13.79
2016-12-28T05:16:53.064Z,13.77
2016-12-28T05:18:03.629Z,13.79
2016-12-28T05:19:14.543Z,13.71
2016-12-28T05:20:25.453Z,13.78
2016-12-28T05:21:36.362Z,13.75
2016-12-28T05:22:47.311Z,13.73
2016-12-28T05:23:58.234Z,13.7
2016-12-28T05:25:09.142Z,13.7
2016-12-28T05:26:19.704Z,13.73
2016-12-28T05:27:30.265Z,13.81
2016-12-28T05:28:41.218Z,13.64
2016-12-28T05:29:52.132Z,13.81
2016-12-28T05:31:03.049Z,13.73
2016-12-28T05:32:13.963Z,13.79
2016-12-28T05:33:24.524Z,13.81
2016-12-28T05:34:35.133Z,13.78
2016-12-28T05:35:45.707Z,13.75
2016-12-28T05:36:56.268Z,13.79
2016-12-28T05:38:06.830Z,13.79
2016-12-28T05:39:17.739Z,13.7
2016-12-28T05:40:28.356Z,13.67
2016-12-28T05:41:38.914Z,13.77
2016-12-28T05:42:49.475Z,13.78
2016-12-28T05:44:00.049Z,13.67
2016-12-28T05:45:10.962Z,13.78
2016-12-28T05:46:21.571Z,13.73
2016-12-28T05:47:32.473Z,13.81
2016-12-28T05:48:43.399Z,13.75
2016-12-28T05:49:54.308Z,13.73
2016-12-28T05:51:04.866Z,13.78
2016-12-28T05:52:15.823Z,13.78
2016-12-28T05:53:26.740Z,13.71
2016-12-28T05:54:37.330Z,13.7
2016-12-28T05:55:48.235Z,13.71
2016-12-28T05:56:58.797Z,13.69
2016-12-28T05:58:09.752Z,13.77
2016-12-28T05:59:19.977Z,13.79
2016-12-28T06:00:30.534Z,13.71
2016-12-28T06:01:41.117Z,13.67
2016-12-28T06:02:51.676Z,13.75
2016-12-28T06:04:02.634Z,13.7
2016-12-28T06:05:13.548Z,13.78
2016-12-28T06:06:24.125Z,13.73
2016-12-28T06:07:35.027Z,13.73
2016-12-28T06:08:45.940Z,13.75
2016-12-28T06:09:56.906Z,13.67
2016-12-28T06:11:07.815Z,13.69
2016-12-28T06:12:18.729Z,13.7
2016-12-28T06:13:29.638Z,13.71
2016-12-28T06:14:40.191Z,13.79
2016-12-28T06:15:50.805Z,13.81
2016-12-28T06:17:01.380Z,13.75
2016-12-28T06:18:11.947Z,13.75
2016-12-28T06:19:22.853Z,13.7
2016-12-28T06:20:33.759Z,13.69
2016-12-28T06:21:44.745Z,13.75
2016-12-28T06:22:55.321Z,13.69
2016-12-28T06:24:05.879Z,13.69
2016-12-28T06:25:16.784Z,13.67
2016-12-28T06:26:27.690Z,13.69
2016-12-28T06:27:38.647Z,13.7
2016-12-28T06:28:49.212Z,13.73
2016-12-28T06:29:59.805Z,13.69
2016-12-28T06:31:10.379Z,13.73
2016-12-28T06:32:20.944Z,13.75
2016-12-28T06:33:31.897Z,13.73
2016-12-28T06:34:42.459Z,13.7
2016-12-28T06:35:53.362Z,13.75
2016-12-28T06:37:03.933Z,13.75
2016-12-28T06:38:14.843Z,13.73
2016-12-28T06:39:25.452Z,13.77
2016-12-28T06:40:36.369Z,13.7
2016-12-28T06:41:47.271Z,13.67
2016-12-28T06:42:57.827Z,13.75
2016-12-28T06:44:08.760Z,13.73
2016-12-28T06:45:19.478Z,13.71
2016-12-28T06:46:30.047Z,13.7
2016-12-28T06:47:40.616Z,13.77
2016-12-28T06:48:51.185Z,13.7
2016-12-28T06:50:02.090Z,13.77
2016-12-28T06:51:13.051Z,13.71
2016-12-28T06:52:23.612Z,13.7
2016-12-28T06:53:34.517Z,13.78
2016-12-28T06:54:45.422Z,13.69
2016-12-28T06:55:55.983Z,13.69
2016-12-28T06:57:06.949Z,13.7
2016-12-28T06:58:17.854Z,13.75
2016-12-28T06:59:28.419Z,13.69
2016-12-28T07:00:39.328Z,13.67
2016-12-28T07:01:49.893Z,13.7
2016-12-28T07:03:00.511Z,13.67
2016-12-28T07:04:11.080Z,13.69
2016-12-28T07:05:21.989Z,13.66
2016-12-28T07:06:32.898Z,13.79
2016-12-28T07:07:43.831Z,13.66
2016-12-28T07:08:54.452Z,13.75
2016-12-28T07:10:05.362Z,13.66
2016-12-28T07:11:16.263Z,13.67
2016-12-28T07:12:26.838Z,13.7
2016-12-28T07:13:37.749Z,13.69
2016-12-28T07:14:48.714Z,13.73
2016-12-28T07:15:58.927Z,13.71
2016-12-28T07:17:09.824Z,13.77
2016-12-28T07:18:20.421Z,13.69
2016-12-28T07:19:30.987Z,13.64
2016-12-28T07:20:41.944Z,13.66
2016-12-28T07:21:52.177Z,13.69
2016-12-28T07:23:03.082Z,13.77
2016-12-28T07:24:13.991Z,13.67
2016-12-28T07:25:24.557Z,13.73
2016-12-28T07:26:35.190Z,13.7
2016-12-28T07:27:45.759Z,13.67
2016-12-28T07:28:56.660Z,13.67
2016-12-28T07:30:07.573Z,13.69
2016-12-28T07:31:18.134Z,13.71
2016-12-28T07:32:29.096Z,13.7
2016-12-28T07:33:40.008Z,13.71
2016-12-28T07:34:50.563Z,13.75
2016-12-28T07:36:00.771Z,13.69
2016-12-28T07:37:11.676Z,13.66
2016-12-28T07:38:21.942Z,13.69
2016-12-28T07:39:32.847Z,13.67
2016-12-28T07:40:43.759Z,13.73
2016-12-28T07:41:54.673Z,13.78
2016-12-28T07:43:05.578Z,13.78
2016-12-28T07:44:16.195Z,13.7
2016-12-28T07:45:26.404Z,13.71
2016-12-28T07:46:36.957Z,13.67
2016-12-28T07:47:47.175Z,13.7
2016-12-28T07:48:58.079Z,13.73
2016-12-28T07:50:08.696Z,13.77
2016-12-28T07:51:19.261Z,13.73
2016-12-28T07:52:29.834Z,13.77
2016-12-28T07:53:40.395Z,13.75
2016-12-28T07:54:50.968Z,13.71
2016-12-28T07:56:01.933Z,13.7
2016-12-28T07:57:12.846Z,13.79
2016-12-28T07:58:23.751Z,13.75
2016-12-28T07:59:34.312Z,13.69
2016-12-28T08:00:44.877Z,13.7
2016-12-28T08:01:55.830Z,13.75
2016-12-28T08:03:06.735Z,13.75
2016-12-28T08:04:17.645Z,13.78
2016-12-28T08:05:28.213Z,13.7
2016-12-28T08:06:39.122Z,13.75
2016-12-28T08:07:49.735Z,13.73
2016-12-28T08:09:00.308Z,13.79
2016-12-28T08:10:10.869Z,13.77
2016-12-28T08:11:21.810Z,13.73
2016-12-28T08:12:32.375Z,13.79
2016-12-28T08:13:43.336Z,13.82
2016-12-28T08:14:54.241Z,13.73
2016-12-28T08:16:04.799Z,13.82
2016-12-28T08:17:15.363Z,13.69
2016-12-28T08:18:25.585Z,13.75
2016-12-28T08:19:36.577Z,13.75
2016-12-28T08:20:47.134Z,13.71
2016-12-28T08:21:58.048Z,13.82
2016-12-28T08:23:08.957Z,13.81
2016-12-28T08:24:19.530Z,13.78
2016-12-28T08:25:30.170Z,13.79
2016-12-28T08:26:40.731Z,13.81
2016-12-28T08:27:51.292Z,13.84
2016-12-28T08:29:01.853Z,13.82
2016-12-28T08:30:12.418Z,13.84
2016-12-28T08:31:23.031Z,13.73
2016-12-28T08:32:33.972Z,13.73
2016-12-28T08:33:44.532Z,13.77
2016-12-28T08:34:55.433Z,13.77
2016-12-28T08:36:06.006Z,13.91
2016-12-28T08:37:16.615Z,13.85
2016-12-28T08:38:27.524Z,13.82
2016-12-28T08:39:38.433Z,13.85
2016-12-28T08:40:49.026Z,13.85
2016-12-28T08:41:59.939Z,13.84
2016-12-28T08:43:10.900Z,13.88
2016-12-28T08:44:21.800Z,13.95
2016-12-28T08:45:32.361Z,13.87
2016-12-28T08:46:42.978Z,13.91
2016-12-28T08:47:53.897Z,13.89
2016-12-28T08:49:04.852Z,13.97
2016-12-28T08:50:15.761Z,13.89
2016-12-28T08:51:26.674Z,13.85
2016-12-28T08:52:37.575Z,13.92
2016-12-28T08:53:48.136Z,13.88
2016-12-28T08:54:58.749Z,13.92
2016-12-28T08:56:09.650Z,13.92
2016-12-28T08:57:20.559Z,14
2016-12-28T08:58:31.124Z,13.95
2016-12-28T08:59:41.688Z,13.95
2016-12-28T09:00:52.297Z,13.95
2016-12-28T09:02:02.874Z,13.96
2016-12-28T09:03:13.443Z,13.91
2016-12-28T09:04:24.348Z,13.91
2016-12-28T09:05:35.249Z,13.96
2016-12-28T09:06:45.874Z,13.92
2016-12-28T09:07:56.779Z,13.91
2016-12-28T09:09:07.687Z,14.03
2016-12-28T09:10:18.248Z,13.95
2016-12-28T09:11:29.145Z,13.91
2016-12-28T09:12:40.254Z,14
2016-12-28T09:13:51.175Z,14.03
2016-12-28T09:15:01.740Z,14.03
2016-12-28T09:16:12.653Z,13.96
2016-12-28T09:17:23.214Z,14.02
2016-12-28T09:18:34.174Z,14.03
2016-12-28T09:19:44.396Z,13.96
2016-12-28T09:20:55.301Z,13.97
2016-12-28T09:22:05.862Z,14.02
2016-12-28T09:23:16.438Z,13.91
2016-12-28T09:24:27.048Z,14.03
2016-12-28T09:25:37.640Z,13.99
2016-12-28T09:26:48.550Z,13.99
2016-12-28T09:27:58.771Z,13.97
2016-12-28T09:29:09.704Z,13.91
2016-12-28T09:30:20.665Z,13.99
2016-12-28T09:31:31.586Z,13.91
2016-12-28T09:32:42.523Z,14.04
2016-12-28T09:33:53.440Z,14
2016-12-28T09:35:04.005Z,13.95
2016-12-28T09:36:14.965Z,14.02
2016-12-28T09:37:25.878Z,14
2016-12-28T09:38:36.448Z,14
2016-12-28T09:39:47.356Z,13.91
2016-12-28T09:40:58.270Z,14.02
2016-12-28T09:42:08.914Z,14
2016-12-28T09:43:19.476Z,13.97
2016-12-28T09:44:30.040Z,14
2016-12-28T09:45:40.602Z,13.99
2016-12-28T09:46:51.186Z,13.92
2016-12-28T09:48:01.800Z,14.09
2016-12-28T09:49:12.705Z,14.1
2016-12-28T09:50:23.605Z,14.09
2016-12-28T09:51:34.163Z,14.07
2016-12-28T09:52:44.759Z,14.04
2016-12-28T09:53:55.369Z,14.09
2016-12-28T09:55:05.586Z,14.03
2016-12-28T09:56:16.151Z,14.07
2016-12-28T09:57:27.057Z,14.1
2016-12-28T09:58:37.970Z,14
2016-12-28T09:59:48.959Z,14.06
2016-12-28T10:00:59.524Z,14.07
2016-12-28T10:02:10.461Z,14.15
2016-12-28T10:03:21.370Z,14.12
2016-12-28T10:04:31.936Z,13.99
2016-12-28T10:05:42.553Z,14.07
2016-12-28T10:06:53.114Z,14.12
2016-12-28T10:08:04.027Z,14.1
2016-12-28T10:09:14.937Z,14.14
2016-12-28T10:10:25.850Z,14.17
2016-12-28T10:11:36.463Z,14.21
2016-12-28T10:12:47.036Z,14.18
2016-12-28T10:13:57.605Z,14.15
2016-12-28T10:15:08.167Z,14.1
2016-12-28T10:16:19.100Z,14.15
2016-12-28T10:17:29.714Z,14.1
2016-12-28T10:18:40.282Z,14.18
2016-12-28T10:19:51.176Z,14.17
2016-12-28T10:21:02.081Z,14.04
2016-12-28T10:22:12.986Z,14.15
2016-12-28T10:23:23.592Z,14.12
2016-12-28T10:24:34.508Z,14.12
2016-12-28T10:25:45.414Z,14.15
2016-12-28T10:26:56.335Z,14.1
2016-12-28T10:28:07.249Z,14.15
2016-12-28T10:29:18.218Z,14.1
2016-12-28T10:30:28.439Z,14.1
2016-12-28T10:31:39.356Z,14.14
2016-12-28T10:32:49.909Z,14.2
2016-12-28T10:34:00.475Z,14.12
2016-12-28T10:35:11.148Z,14.2
2016-12-28T10:36:22.081Z,14.15
2016-12-28T10:37:32.650Z,14.17
2016-12-28T10:38:43.559Z,14.25
2016-12-28T10:39:54.480Z,14.2
2016-12-28T10:41:05.434Z,14.17
2016-12-28T10:42:16.355Z,14.22
2016-12-28T10:43:26.916Z,14.14
2016-12-28T10:44:37.825Z,14.21
2016-12-28T10:45:48.726Z,14.28
2016-12-28T10:46:59.348Z,14.28
2016-12-28T10:48:10.265Z,14.17
2016-12-28T10:49:21.174Z,14.24
2016-12-28T10:50:31.731Z,14.15
2016-12-28T10:51:42.633Z,14.22
2016-12-28T10:52:53.594Z,14.27
2016-12-28T10:54:04.151Z,14.25
2016-12-28T10:55:14.725Z,14.24
2016-12-28T10:56:25.282Z,14.28
2016-12-28T10:57:36.195Z,14.27
2016-12-28T10:58:48.001Z,14.33
2016-12-28T10:59:58.566Z,14.27
2016-12-28T11:01:09.119Z,14.28
2016-12-28T11:02:19.696Z,14.32
2016-12-28T11:03:30.602Z,14.33
2016-12-28T11:04:41.219Z,14.29
2016-12-28T11:05:51.796Z,14.33
2016-12-28T11:07:02.361Z,14.33
2016-12-28T11:08:13.267Z,14.35
2016-12-28T11:09:24.172Z,14.33
2016-12-28T11:10:34.786Z,14.35
2016-12-28T11:11:45.707Z,14.39
2016-12-28T11:12:56.264Z,14.35
2016-12-28T11:14:07.177Z,14.28
2016-12-28T11:15:17.739Z,14.28
2016-12-28T11:16:28.360Z,14.37
2016-12-28T11:17:39.273Z,14.33
2016-12-28T11:18:50.178Z,14.36
2016-12-28T11:20:01.083Z,14.25
2016-12-28T11:21:11.649Z,14.43
2016-12-28T11:22:22.614Z,14.4
2016-12-28T11:23:33.524Z,14.39
2016-12-28T11:24:44.430Z,14.45
2016-12-28T11:25:54.999Z,14.46
2016-12-28T11:27:05.581Z,14.36
2016-12-28T11:28:16.191Z,14.29
2016-12-28T11:29:27.101Z,14.35
2016-12-28T11:30:38.014Z,14.42
2016-12-28T11:31:48.580Z,14.36
2016-12-28T11:32:59.150Z,14.4
2016-12-28T11:34:09.755Z,14.45
2016-12-28T11:35:19.973Z,14.36
2016-12-28T11:36:30.890Z,14.52
2016-12-28T11:37:41.460Z,14.4
2016-12-28T11:38:52.409Z,14.47
2016-12-28T11:40:03.027Z,14.54
2016-12-28T11:41:13.621Z,14.39
2016-12-28T11:42:24.195Z,14.39
2016-12-28T11:43:35.104Z,14.35
2016-12-28T11:44:45.674Z,14.37
2016-12-28T11:45:56.643Z,14.47
2016-12-28T11:47:07.549Z,14.42
2016-12-28T11:48:18.106Z,14.43
2016-12-28T11:49:29.015Z,14.45
2016-12-28T11:50:39.921Z,14.43
2016-12-28T11:51:50.888Z,14.43
2016-12-28T11:53:01.568Z,14.42
2016-12-28T11:54:12.898Z,14.39
2016-12-28T11:55:24.219Z,14.4
2016-12-28T11:56:35.125Z,14.47
2016-12-28T11:57:46.071Z,14.47
2016-12-28T11:58:57.400Z,14.4
2016-12-28T12:00:08.294Z,14.33
2016-12-28T12:01:19.191Z,14.36
2016-12-28T12:02:29.660Z,14.43
2016-12-28T12:03:41.054Z,14.42
2016-12-28T12:04:52.379Z,14.45
2016-12-28T12:06:03.704Z,14.35
2016-12-28T12:07:15.030Z,14.43
2016-12-28T12:08:25.924Z,14.54
2016-12-28T12:09:36.865Z,14.39
2016-12-28T12:10:48.186Z,14.46
2016-12-28T12:11:59.080Z,14.46
2016-12-28T12:13:10.609Z,14.45
2016-12-28T12:14:21.939Z,14.4
2016-12-28T12:15:32.880Z,14.5
2016-12-28T12:16:44.193Z,14.46
2016-12-28T12:17:55.539Z,14.45
2016-12-28T12:19:06.897Z,14.45
2016-12-28T12:20:17.794Z,14.45
2016-12-28T12:21:28.739Z,14.45
2016-12-28T12:22:39.637Z,14.45
2016-12-28T12:23:50.530Z,14.4
2016-12-28T12:25:01.423Z,14.36
2016-12-28T12:26:12.737Z,14.45
2016-12-28T12:27:23.726Z,14.5
2016-12-28T12:28:35.052Z,14.39
2016-12-28T12:29:45.941Z,14.37
2016-12-28T12:30:57.259Z,14.46
2016-12-28T12:32:08.156Z,14.45
2016-12-28T12:33:19.098Z,14.47
2016-12-28T12:34:30.430Z,14.4
2016-12-28T12:35:41.756Z,14.5
2016-12-28T12:36:53.079Z,14.45
2016-12-28T12:38:03.979Z,14.39
2016-12-28T12:39:15.353Z,14.42
2016-12-28T12:40:26.254Z,14.46
2016-12-28T12:41:36.787Z,14.4
2016-12-28T12:42:47.685Z,14.39
2016-12-28T12:43:58.842Z,14.4
2016-12-28T12:45:09.812Z,14.33
2016-12-28T12:46:20.705Z,14.37
2016-12-28T12:47:31.619Z,14.45
2016-12-28T12:48:42.984Z,14.43
2016-12-28T12:49:53.458Z,14.37
2016-12-28T12:51:04.832Z,14.42
2016-12-28T12:52:15.728Z,14.39
2016-12-28T12:53:26.734Z,14.42
2016-12-28T12:54:37.203Z,14.33
2016-12-28T12:55:48.529Z,14.36
2016-12-28T12:57:00.442Z,14.36
2016-12-28T12:58:11.776Z,14.42
2016-12-28T12:59:23.097Z,14.36
2016-12-28T13:00:33.994Z,14.42
2016-12-28T13:01:45.312Z,14.42
2016-12-28T13:02:56.685Z,14.42
2016-12-28T13:04:07.211Z,14.37
2016-12-28T13:05:17.864Z,14.29
2016-12-28T13:06:28.757Z,14.29
2016-12-28T13:07:39.662Z,14.28
2016-12-28T13:08:51.031Z,14.37
2016-12-28T13:10:01.921Z,14.4
2016-12-28T13:11:12.818Z,14.29
2016-12-28T13:12:23.707Z,14.27
2016-12-28T13:13:34.604Z,14.32
2016-12-28T13:14:45.598Z,14.24
2016-12-28T13:15:56.919Z,14.29
2016-12-28T13:17:07.824Z,14.35
2016-12-28T13:18:18.317Z,14.29
2016-12-28T13:19:29.218Z,14.25
2016-12-28T13:20:40.159Z,14.28
2016-12-28T13:21:51.484Z,14.35
2016-12-28T13:23:02.386Z,14.29
2016-12-28T13:24:13.279Z,14.33
2016-12-28T13:25:24.172Z,14.28
2016-12-28T13:26:35.549Z,14.29
2016-12-28T13:27:46.875Z,14.27
2016-12-28T13:28:57.776Z,14.37
2016-12-28T13:30:08.665Z,14.24
2016-12-28T13:31:19.570Z,14.32
2016-12-28T13:32:30.955Z,14.36
2016-12-28T13:33:42.289Z,14.28
2016-12-28T13:34:52.749Z,14.33
2016-12-28T13:36:03.651Z,14.35
2016-12-28T13:37:14.976Z,14.29
2016-12-28T13:38:25.913Z,14.25
2016-12-28T13:39:37.235Z,14.28
2016-12-28T13:40:48.572Z,14.24
2016-12-28T13:41:59.901Z,14.33
2016-12-28T13:43:10.806Z,14.27
2016-12-28T13:44:21.747Z,14.27
2016-12-28T13:45:33.072Z,14.29
2016-12-28T13:46:43.974Z,14.25
2016-12-28T13:47:55.323Z,14.28
2016-12-28T13:49:06.216Z,14.24
2016-12-28T13:50:17.161Z,14.25
2016-12-28T13:51:28.057Z,14.28
2016-12-28T13:52:38.955Z,14.25
2016-12-28T13:53:50.280Z,14.28
2016-12-28T13:55:01.609Z,14.22
2016-12-28T13:56:12.562Z,14.2
2016-12-28T13:57:23.464Z,14.21
2016-12-28T13:58:34.780Z,14.25
2016-12-28T13:59:45.674Z,14.14
2016-12-28T14:00:56.999Z,14.28
2016-12-28T14:02:07.520Z,14.18
2016-12-28T14:03:18.437Z,14.21
2016-12-28T14:04:29.339Z,14.2
2016-12-28T14:05:40.239Z,14.22
2016-12-28T14:06:51.129Z,14.21
2016-12-28T14:08:02.074Z,14.17
2016-12-28T14:09:13.395Z,14.18
2016-12-28T14:10:24.296Z,14.21
2016-12-28T14:11:35.189Z,14.21
2016-12-28T14:12:46.519Z,14.1
2016-12-28T14:13:57.889Z,14.12
2016-12-28T14:15:08.793Z,14.17
2016-12-28T14:16:19.694Z,14.15
2016-12-28T14:17:30.587Z,14.21
2016-12-28T14:18:41.488Z,14.18
2016-12-28T14:19:52.437Z,14.18
2016-12-28T14:21:03.758Z,14.17
2016-12-28T14:22:14.643Z,14.18
2016-12-28T14:23:25.968Z,14.12
2016-12-28T14:24:36.877Z,14.21
2016-12-28T14:25:48.258Z,14.18
2016-12-28T14:26:59.165Z,14.18
2016-12-28T14:28:10.084Z,14.17
2016-12-28T14:29:20.979Z,14.14
2016-12-28T14:30:32.303Z,14.18
2016-12-28T14:31:43.671Z,14.2
2016-12-28T14:32:54.989Z,14.09
2016-12-28T14:34:05.882Z,14.15
2016-12-28T14:35:17.203Z,14.22
2016-12-28T14:36:28.524Z,14.12
2016-12-28T14:37:39.897Z,14.17
2016-12-28T14:38:50.794Z,14.07
2016-12-28T14:40:02.107Z,14.17
2016-12-28T14:41:13.000Z,14.17
2016-12-28T14:42:24.326Z,14.17
2016-12-28T14:43:35.707Z,14.04
2016-12-28T14:44:47.040Z,14.1
2016-12-28T14:45:57.949Z,14.09
2016-12-28T14:47:09.278Z,14.09
2016-12-28T14:48:20.599Z,14.12
2016-12-28T14:49:31.688Z,14.03
2016-12-28T14:50:42.589Z,14.12
2016-12-28T14:51:53.908Z,14.14
2016-12-28T14:53:04.807Z,14.1
2016-12-28T14:54:15.704Z,14.09
2016-12-28T14:55:26.650Z,14.12
2016-12-28T14:56:37.542Z,14.09
2016-12-28T14:57:48.431Z,14.12
2016-12-28T14:58:59.753Z,14.02
2016-12-28T15:00:10.654Z,14.07
2016-12-28T15:01:22.019Z,14.14
2016-12-28T15:02:32.928Z,14.1
2016-12-28T15:03:43.821Z,14.06
2016-12-28T15:04:55.154Z,14.04
2016-12-28T15:06:06.475Z,14.04
2016-12-28T15:07:16.992Z,14.07
2016-12-28T15:08:28.330Z,14.06
2016-12-28T15:09:39.650Z,14.07
2016-12-28T15:10:50.536Z,14.04
2016-12-28T15:12:01.869Z,13.99
2016-12-28T15:13:13.241Z,13.97
2016-12-28T15:14:24.580Z,14.06
2016-12-28T15:15:35.904Z,14.03